Time;durP1;ratioP1;P1;durP2;ratioP2;P2;SDS_P1;SDS_P2;PMS_P1;PMS_P2;Temp;Humidity;BMP_temperature;BMP_pressure;BME280_temperature;BME280_humidity;BME280_pressure;Samples;Min_cycle;Max_cycle;Signal;HPM_P1;HPM_P2
2023/12/24 00:01:58;;;;;;;19.08;4.78;;;9.20;99.90;;;;;;5017708;28;20506;-61
2023/12/24 00:04:24;;;;;;;13.18;4.03;;;9.10;99.90;;;;;;5033359;28;20053;-60
2023/12/24 00:06:49;;;;;;;12.85;3.33;;;9.20;99.90;;;;;;5037075;28;20551;-60
2023/12/24 00:09:15;;;;;;;13.95;4.07;;;9.20;99.90;;;;;;5020973;28;20139;-60
2023/12/24 00:11:41;;;;;;;14.80;3.25;;;9.10;99.90;;;;;;5036692;28;20041;-60
2023/12/24 00:14:06;;;;;;;13.90;3.50;;;9.10;99.90;;;;;;5055360;28;20387;-61
2023/12/24 00:16:32;;;;;;;11.30;3.75;;;9.10;99.90;;;;;;5036957;28;20045;-61
2023/12/24 00:18:58;;;;;;;13.68;3.35;;;9.10;99.90;;;;;;5020354;28;20457;-60
2023/12/24 00:21:24;;;;;;;14.02;4.38;;;9.10;99.90;;;;;;5020727;28;20032;-60
2023/12/24 00:23:50;;;;;;;16.52;3.78;;;9.10;99.90;;;;;;5054592;28;20053;-60
2023/12/24 00:26:16;;;;;;;11.23;3.42;;;9.20;99.90;;;;;;5036391;28;20155;-60
2023/12/24 00:28:43;;;;;;;14.73;3.75;;;9.10;99.90;;;;;;5037294;28;20478;-60
2023/12/24 00:31:09;;;;;;;18.45;4.28;;;9.10;99.90;;;;;;5037003;28;20049;-60
2023/12/24 00:33:35;;;;;;;15.75;5.32;;;9.20;99.90;;;;;;5036044;28;20401;-60
2023/12/24 00:36:01;;;;;;;11.82;4.43;;;9.20;99.90;;;;;;5036499;28;20444;-60
2023/12/24 00:38:26;;;;;;;15.02;3.35;;;9.20;99.90;;;;;;5036961;28;20041;-60
2023/12/24 00:40:52;;;;;;;10.95;3.67;;;9.10;99.90;;;;;;5035753;28;20041;-60
2023/12/24 00:43:18;;;;;;;19.33;4.13;;;9.20;99.90;;;;;;5035670;28;20051;-60
2023/12/24 00:45:44;;;;;;;15.10;3.55;;;9.10;99.90;;;;;;5053462;28;20159;-60
2023/12/24 00:48:10;;;;;;;13.45;3.33;;;9.10;99.90;;;;;;5019323;28;20120;-60
2023/12/24 00:50:36;;;;;;;12.88;3.40;;;9.20;99.90;;;;;;5053495;28;20044;-60
2023/12/24 00:53:02;;;;;;;12.82;3.58;;;9.20;99.90;;;;;;5050935;28;20393;-60
2023/12/24 00:55:28;;;;;;;10.32;3.05;;;9.10;99.90;;;;;;5035636;28;20048;-60
2023/12/24 00:57:53;;;;;;;12.60;3.22;;;9.20;99.90;;;;;;5036465;28;20087;-60
2023/12/24 01:00:19;;;;;;;13.10;3.35;;;9.10;99.90;;;;;;5036421;28;20440;-60
2023/12/24 01:02:45;;;;;;;15.95;4.25;;;9.20;99.90;;;;;;5053452;28;20060;-60
2023/12/24 01:05:11;;;;;;;16.40;3.75;;;9.20;99.90;;;;;;5033697;28;20461;-61
2023/12/24 01:07:36;;;;;;;14.80;3.78;;;9.10;99.90;;;;;;5015710;28;20042;-61
2023/12/24 01:10:02;;;;;;;11.07;4.18;;;9.10;99.90;;;;;;5016588;28;20406;-60
2023/12/24 01:12:28;;;;;;;9.85;3.70;;;9.10;99.90;;;;;;5016335;28;20048;-60
2023/12/24 01:14:54;;;;;;;13.05;3.58;;;9.20;99.90;;;;;;5015591;28;20049;-60
2023/12/24 01:17:20;;;;;;;12.68;3.70;;;9.10;99.90;;;;;;5016400;28;20064;-60
2023/12/24 01:19:45;;;;;;;18.55;3.20;;;9.20;99.90;;;;;;5016518;28;20037;-60
2023/12/24 01:22:11;;;;;;;12.23;4.25;;;9.20;99.90;;;;;;4999249;28;20049;-60
2023/12/24 01:24:37;;;;;;;13.70;4.05;;;9.20;99.90;;;;;;5034490;28;20465;-61
2023/12/24 01:27:03;;;;;;;12.65;3.50;;;9.20;99.90;;;;;;5036207;28;20461;-60
2023/12/24 01:29:28;;;;;;;10.50;3.33;;;9.20;99.90;;;;;;5035014;28;20068;-60
2023/12/24 01:31:54;;;;;;;12.93;3.40;;;9.20;99.90;;;;;;5019050;28;20037;-60
2023/12/24 01:34:19;;;;;;;12.10;3.70;;;9.20;99.90;;;;;;5016021;28;20041;-60
2023/12/24 01:36:45;;;;;;;12.68;4.40;;;9.20;99.90;;;;;;5030024;28;20084;-60
2023/12/24 01:39:11;;;;;;;10.88;3.20;;;9.20;99.90;;;;;;5035996;28;20390;-61
2023/12/24 01:41:37;;;;;;;14.38;4.18;;;9.20;99.90;;;;;;5052203;28;20551;-61
2023/12/24 01:44:02;;;;;;;11.15;3.33;;;9.20;99.90;;;;;;5034717;28;20445;-60
2023/12/24 01:46:29;;;;;;;13.00;4.00;;;9.20;99.90;;;;;;5052114;28;20091;-61
2023/12/24 01:48:56;;;;;;;9.10;3.00;;;9.20;99.90;;;;;;5035823;28;20037;-60
2023/12/24 01:51:23;;;;;;;11.90;3.78;;;9.20;99.90;;;;;;5018289;28;20048;-60
2023/12/24 01:53:51;;;;;;;10.27;3.10;;;9.20;99.90;;;;;;5034950;28;20052;-60
2023/12/24 01:56:19;;;;;;;11.18;3.70;;;9.20;99.90;;;;;;5034828;28;20060;-61
2023/12/24 01:58:45;;;;;;;11.82;3.58;;;9.20;99.90;;;;;;5034405;28;20045;-60
2023/12/24 02:01:11;;;;;;;12.38;3.75;;;9.30;99.90;;;;;;5035513;28;20049;-60
2023/12/24 02:03:37;;;;;;;8.90;3.90;;;9.30;99.90;;;;;;5035226;28;20414;-60
2023/12/24 02:06:08;;;;;;;7.88;2.90;;;9.20;99.90;;;;;;5034548;28;20489;-60
2023/12/24 02:08:36;;;;;;;15.35;3.88;;;9.20;99.90;;;;;;5035165;28;20037;-60
2023/12/24 02:11:03;;;;;;;10.40;3.05;;;9.20;99.90;;;;;;5018217;28;20497;-59
2023/12/24 02:13:30;;;;;;;16.60;4.63;;;9.20;99.90;;;;;;5035330;28;20064;-60
2023/12/24 02:16:02;;;;;;;14.18;3.00;;;9.30;99.90;;;;;;5035508;28;20053;-60
2023/12/24 02:18:28;;;;;;;10.35;3.08;;;9.20;99.90;;;;;;5034409;28;20107;-60
2023/12/24 02:21:05;;;;;;;20.25;4.47;;;9.20;99.90;;;;;;5034794;28;20040;-60
2023/12/24 02:23:30;;;;;;;9.13;2.67;;;9.20;99.90;;;;;;5034223;28;20083;-60
2023/12/24 02:26:12;;;;;;;10.57;2.97;;;9.30;99.90;;;;;;5026446;28;20068;-60
2023/12/24 02:28:41;;;;;;;10.13;2.67;;;9.20;99.90;;;;;;5015290;28;20379;-60
2023/12/24 02:31:10;;;;;;;9.75;3.20;;;9.20;99.90;;;;;;5024214;28;20493;-60
2023/12/24 02:33:42;;;;;;;11.82;3.58;;;9.20;99.90;;;;;;5033806;28;20051;-60
2023/12/24 02:36:12;;;;;;;12.77;3.45;;;9.20;99.90;;;;;;5034643;28;20048;-60
2023/12/24 02:38:38;;;;;;;12.75;3.53;;;9.20;99.90;;;;;;5034747;28;20048;-60
2023/12/24 02:41:04;;;;;;;14.80;3.67;;;9.20;99.90;;;;;;5034136;28;20504;-60
2023/12/24 02:43:30;;;;;;;13.18;3.72;;;9.30;99.90;;;;;;5033821;28;20501;-60
2023/12/24 02:45:57;;;;;;;12.07;4.35;;;9.30;99.90;;;;;;5018320;28;20045;-61
2023/12/24 02:48:22;;;;;;;14.35;4.65;;;9.30;99.90;;;;;;5032117;28;20091;-60
2023/12/24 02:50:48;;;;;;;16.35;4.20;;;9.20;99.90;;;;;;5050894;28;20040;-60
2023/12/24 02:53:14;;;;;;;12.77;3.20;;;9.20;99.90;;;;;;5033843;28;20084;-60
2023/12/24 02:55:39;;;;;;;12.20;3.20;;;9.30;99.90;;;;;;5041578;28;20498;-60
2023/12/24 02:58:05;;;;;;;11.68;3.35;;;9.30;99.90;;;;;;5015281;28;20497;-60
2023/12/24 03:00:31;;;;;;;12.10;3.25;;;9.30;99.90;;;;;;5013502;28;20491;-60
2023/12/24 03:02:56;;;;;;;12.38;3.80;;;9.30;99.90;;;;;;5014506;28;20057;-60
2023/12/24 03:05:22;;;;;;;14.93;4.43;;;9.30;99.90;;;;;;5013736;28;20045;-60
2023/12/24 03:07:48;;;;;;;10.80;3.08;;;9.30;99.90;;;;;;5013774;28;20045;-60
2023/12/24 03:10:13;;;;;;;12.23;2.42;;;9.30;99.90;;;;;;5032386;28;20076;-60
2023/12/24 03:12:39;;;;;;;9.05;3.03;;;9.40;99.90;;;;;;5014388;28;20482;-60
2023/12/24 03:15:06;;;;;;;7.90;2.65;;;9.40;99.90;;;;;;5014017;28;20399;-60
2023/12/24 03:17:31;;;;;;;6.95;2.38;;;9.40;99.90;;;;;;5014234;28;20033;-60
2023/12/24 03:19:57;;;;;;;6.53;1.98;;;9.40;99.90;;;;;;5014884;28;20505;-60
2023/12/24 03:22:22;;;;;;;7.53;2.70;;;9.40;99.90;;;;;;5018814;28;20481;-60
2023/12/24 03:24:48;;;;;;;8.05;2.00;;;9.40;99.90;;;;;;5047801;28;20175;-60
2023/12/24 03:27:14;;;;;;;7.43;2.03;;;9.40;99.90;;;;;;5016424;28;20116;-60
2023/12/24 03:29:40;;;;;;;7.07;1.90;;;9.40;99.90;;;;;;5033212;28;20041;-61
2023/12/24 03:32:06;;;;;;;5.95;2.53;;;9.50;99.90;;;;;;5052019;28;20041;-60
2023/12/24 03:34:32;;;;;;;7.25;2.20;;;9.40;99.90;;;;;;5033436;28;20041;-60
2023/12/24 03:36:57;;;;;;;5.97;1.50;;;9.50;99.90;;;;;;5016839;28;20375;-61
2023/12/24 03:39:23;;;;;;;8.25;2.17;;;9.50;99.90;;;;;;5034236;28;20045;-61
2023/12/24 03:41:49;;;;;;;7.78;2.00;;;9.50;99.90;;;;;;5029132;28;20662;-60
2023/12/24 03:44:14;;;;;;;8.00;2.17;;;9.50;99.90;;;;;;5029915;28;20038;-61
2023/12/24 03:46:40;;;;;;;5.15;1.45;;;9.50;99.90;;;;;;4997483;28;20080;-60
2023/12/24 03:49:09;;;;;;;4.93;1.50;;;9.60;99.90;;;;;;4997874;28;20048;-60
2023/12/24 03:51:34;;;;;;;7.20;1.80;;;9.50;99.90;;;;;;5013338;28;20045;-60
2023/12/24 03:54:00;;;;;;;5.38;1.48;;;9.50;99.90;;;;;;5031897;28;20114;-61
2023/12/24 03:56:26;;;;;;;8.18;2.47;;;9.50;99.90;;;;;;5028179;28;20044;-60
2023/12/24 03:58:51;;;;;;;6.30;1.85;;;9.60;99.90;;;;;;5050543;28;20041;-60
2023/12/24 04:01:17;;;;;;;5.63;2.03;;;9.60;99.90;;;;;;5050432;28;20509;-60
2023/12/24 04:03:44;;;;;;;7.30;2.25;;;9.60;99.90;;;;;;5049219;28;20067;-60
2023/12/24 04:06:15;;;;;;;4.95;2.00;;;9.60;99.90;;;;;;5033819;28;20037;-60
2023/12/24 04:08:41;;;;;;;6.07;2.13;;;9.60;99.90;;;;;;5033719;28;20073;-60
2023/12/24 04:11:13;;;;;;;5.25;1.75;;;9.60;99.90;;;;;;5049884;28;20084;-60
2023/12/24 04:13:39;;;;;;;11.27;2.50;;;9.60;99.90;;;;;;5033535;28;20036;-60
2023/12/24 04:16:06;;;;;;;10.75;2.40;;;9.70;99.90;;;;;;5034394;28;20375;-60
2023/12/24 04:18:31;;;;;;;8.73;3.05;;;9.60;99.90;;;;;;5019802;28;20491;-61
2023/12/24 04:20:57;;;;;;;8.45;2.67;;;9.60;99.90;;;;;;5054022;28;20130;-61
2023/12/24 04:23:23;;;;;;;7.78;2.40;;;9.60;99.90;;;;;;5053786;28;20375;-60
2023/12/24 04:25:49;;;;;;;7.25;3.08;;;9.60;99.90;;;;;;5035221;28;20366;-61
2023/12/24 04:28:15;;;;;;;9.77;2.58;;;9.70;99.90;;;;;;5037406;28;20068;-61
2023/12/24 04:30:41;;;;;;;8.98;2.83;;;9.60;99.90;;;;;;5053702;28;20486;-61
2023/12/24 04:33:06;;;;;;;11.25;3.13;;;9.70;99.90;;;;;;5052955;28;20075;-60
2023/12/24 04:35:32;;;;;;;6.43;2.55;;;9.70;99.90;;;;;;5036890;28;20390;-60
2023/12/24 04:37:59;;;;;;;10.18;3.58;;;9.70;99.90;;;;;;5053708;28;20044;-60
2023/12/24 04:40:25;;;;;;;9.90;2.47;;;9.70;99.90;;;;;;5036328;28;20048;-60
2023/12/24 04:42:50;;;;;;;11.77;3.45;;;9.70;99.90;;;;;;5053546;28;20482;-61
2023/12/24 04:45:16;;;;;;;10.70;3.08;;;9.70;99.90;;;;;;5036806;28;20037;-61
2023/12/24 04:47:42;;;;;;;16.85;5.32;;;9.80;99.90;;;;;;5052586;28;20461;-61
2023/12/24 04:50:07;;;;;;;13.18;3.78;;;9.70;99.90;;;;;;5052057;28;20489;-61
2023/12/24 04:52:37;;;;;;;16.13;3.72;;;9.80;99.90;;;;;;5036536;28;20037;-61
2023/12/24 04:55:04;;;;;;;10.27;3.75;;;9.70;99.90;;;;;;5032827;28;20072;-61
2023/12/24 04:57:30;;;;;;;13.88;3.72;;;9.80;99.90;;;;;;5036136;28;20483;-60
2023/12/24 04:59:56;;;;;;;21.42;4.75;;;9.80;99.90;;;;;;5019489;28;20048;-60
2023/12/24 05:02:22;;;;;;;15.25;4.80;;;9.80;99.90;;;;;;5036044;28;20053;-60
2023/12/24 05:04:49;;;;;;;10.52;3.50;;;9.80;99.90;;;;;;5036495;28;20047;-60
2023/12/24 05:07:15;;;;;;;11.90;3.78;;;9.90;99.90;;;;;;5035527;28;20090;-60
2023/12/24 05:09:41;;;;;;;11.77;4.00;;;9.80;99.90;;;;;;5036259;28;20116;-60
2023/12/24 05:12:08;;;;;;;14.20;3.42;;;9.80;99.90;;;;;;5054220;28;20511;-61
2023/12/24 05:14:34;;;;;;;15.15;3.75;;;9.90;99.90;;;;;;5035639;28;20482;-61
2023/12/24 05:17:02;;;;;;;16.55;3.75;;;9.90;99.90;;;;;;5036626;28;20110;-61
2023/12/24 05:19:28;;;;;;;13.80;3.63;;;9.90;99.90;;;;;;5036126;28;20052;-60
2023/12/24 05:21:53;;;;;;;17.13;3.92;;;9.90;99.90;;;;;;5035136;28;20045;-61
2023/12/24 05:24:19;;;;;;;14.63;3.88;;;9.90;99.90;;;;;;5036221;28;20504;-61
2023/12/24 05:26:45;;;;;;;12.27;3.75;;;9.90;99.90;;;;;;5039125;28;20370;-61
2023/12/24 05:29:10;;;;;;;15.20;4.40;;;9.90;99.90;;;;;;5014663;28;20041;-61
2023/12/24 05:31:40;;;;;;;9.57;3.15;;;9.90;99.90;;;;;;5019560;28;20045;-61
2023/12/24 05:34:06;;;;;;;13.60;4.47;;;9.90;99.90;;;;;;5036162;28;20130;-61
2023/12/24 05:36:33;;;;;;;15.23;4.68;;;10.00;99.90;;;;;;5019701;28;20044;-61
2023/12/24 05:38:59;;;;;;;14.32;4.53;;;9.90;99.90;;;;;;5016222;28;20052;-61
2023/12/24 05:41:25;;;;;;;18.83;3.35;;;10.00;99.90;;;;;;5015888;28;20080;-61
2023/12/24 05:43:50;;;;;;;16.25;4.88;;;10.00;99.90;;;;;;5032737;28;20076;-61
2023/12/24 05:46:16;;;;;;;12.80;3.63;;;10.10;99.90;;;;;;5015633;28;20052;-61
2023/12/24 05:48:42;;;;;;;17.00;4.05;;;10.10;99.90;;;;;;5032414;28;20041;-61
2023/12/24 05:51:09;;;;;;;14.52;4.82;;;10.10;99.90;;;;;;5014897;28;20551;-61
2023/12/24 05:53:34;;;;;;;19.20;4.25;;;10.10;99.90;;;;;;5033330;28;20045;-61
2023/12/24 05:56:00;;;;;;;12.95;3.63;;;10.10;99.90;;;;;;5022915;28;20425;-61
2023/12/24 05:58:26;;;;;;;12.98;3.08;;;10.10;99.90;;;;;;5051991;28;20037;-60
2023/12/24 06:00:55;;;;;;;13.45;3.95;;;10.10;99.90;;;;;;5052083;28;20037;-60
2023/12/24 06:03:21;;;;;;;14.57;3.42;;;10.10;99.90;;;;;;5014466;28;20045;-60
2023/12/24 06:05:46;;;;;;;12.25;4.03;;;10.10;99.90;;;;;;5025504;28;20054;-60
2023/12/24 06:08:17;;;;;;;12.23;4.28;;;10.10;99.90;;;;;;5033052;28;20044;-60
2023/12/24 06:10:44;;;;;;;13.55;3.45;;;10.10;99.90;;;;;;5014659;28;20056;-60
2023/12/24 06:13:10;;;;;;;10.27;2.95;;;10.20;99.90;;;;;;5015403;28;20056;-60
2023/12/24 06:15:36;;;;;;;13.63;3.40;;;10.10;99.90;;;;;;5015227;28;20045;-60
2023/12/24 06:18:02;;;;;;;13.45;3.25;;;10.10;99.90;;;;;;5014888;28;20048;-60
2023/12/24 06:20:31;;;;;;;10.18;3.60;;;10.20;99.90;;;;;;5015155;28;20056;-61
2023/12/24 06:22:57;;;;;;;12.70;3.20;;;10.20;99.90;;;;;;5015409;28;20037;-61
2023/12/24 06:25:23;;;;;;;11.88;4.38;;;10.10;99.90;;;;;;5000568;28;20045;-61
2023/12/24 06:27:49;;;;;;;13.52;3.58;;;10.20;99.90;;;;;;5034760;28;20087;-61
2023/12/24 06:30:15;;;;;;;13.30;3.88;;;10.20;99.90;;;;;;5052705;28;20112;-61
2023/12/24 06:32:44;;;;;;;14.93;3.90;;;10.20;99.90;;;;;;5034322;28;20041;-61
2023/12/24 06:35:10;;;;;;;12.68;4.07;;;10.20;99.90;;;;;;5034638;28;20115;-61
2023/12/24 06:37:36;;;;;;;18.25;4.40;;;10.20;99.90;;;;;;5013838;28;20037;-61
2023/12/24 06:40:02;;;;;;;12.38;4.72;;;10.20;99.90;;;;;;5014628;28;20390;-61
2023/12/24 06:42:27;;;;;;;19.52;4.57;;;10.20;99.90;;;;;;5014845;28;20064;-60
2023/12/24 06:44:53;;;;;;;18.13;5.25;;;10.10;99.90;;;;;;5015105;28;20454;-60
2023/12/24 06:47:19;;;;;;;16.25;4.85;;;10.20;99.90;;;;;;5031744;28;20449;-60
2023/12/24 06:49:44;;;;;;;11.18;3.17;;;10.20;99.90;;;;;;5014646;28;20073;-60
2023/12/24 06:52:14;;;;;;;11.35;2.70;;;10.20;99.90;;;;;;5014329;28;20049;-61
2023/12/24 06:54:40;;;;;;;10.55;3.10;;;10.20;99.90;;;;;;5032316;28;20426;-61
2023/12/24 06:57:07;;;;;;;12.98;3.83;;;10.20;99.90;;;;;;5014998;28;20077;-60
2023/12/24 06:59:33;;;;;;;15.45;5.07;;;10.20;99.90;;;;;;5013652;28;20073;-61
2023/12/24 07:01:59;;;;;;;9.98;3.83;;;10.20;99.90;;;;;;5014625;28;20084;-61
2023/12/24 07:04:25;;;;;;;15.07;3.65;;;10.30;99.90;;;;;;5032262;28;20081;-60
2023/12/24 07:06:51;;;;;;;15.32;3.17;;;10.20;99.90;;;;;;5013781;28;20095;-60
2023/12/24 07:09:16;;;;;;;11.02;3.60;;;10.20;99.90;;;;;;5014862;28;20498;-60
2023/12/24 07:11:42;;;;;;;13.23;4.13;;;10.30;99.90;;;;;;5014503;28;20190;-60
2023/12/24 07:14:08;;;;;;;13.65;4.07;;;10.30;99.90;;;;;;5013639;28;20073;-60
2023/12/24 07:16:33;;;;;;;15.00;3.88;;;10.30;99.90;;;;;;5014462;28;20482;-60
2023/12/24 07:19:02;;;;;;;10.27;3.05;;;10.30;99.90;;;;;;5014558;28;20049;-61
2023/12/24 07:21:28;;;;;;;10.00;2.38;;;10.40;99.90;;;;;;5030997;28;20045;-60
2023/12/24 07:23:54;;;;;;;11.82;3.97;;;10.30;99.90;;;;;;5014014;28;20045;-60
2023/12/24 07:26:20;;;;;;;10.23;2.75;;;10.30;99.90;;;;;;5014259;28;20041;-60
2023/12/24 07:28:46;;;;;;;16.98;3.17;;;10.40;99.90;;;;;;5013330;28;20041;-61
2023/12/24 07:31:14;;;;;;;9.75;2.95;;;10.40;99.90;;;;;;5031772;28;20060;-61
2023/12/24 07:33:40;;;;;;;10.80;2.85;;;10.50;99.90;;;;;;5014247;28;20507;-61
2023/12/24 07:36:06;;;;;;;9.30;2.28;;;10.50;99.90;;;;;;5013688;28;20112;-60
2023/12/24 07:38:31;;;;;;;10.57;4.30;;;10.50;99.90;;;;;;5013946;28;20403;-61
2023/12/24 07:40:57;;;;;;;13.20;3.95;;;10.50;99.90;;;;;;5030344;28;20383;-61
2023/12/24 07:43:23;;;;;;;9.15;2.63;;;10.50;99.90;;;;;;5029645;28;20398;-61
2023/12/24 07:45:49;;;;;;;13.90;2.80;;;10.50;99.90;;;;;;5014009;28;20483;-61
2023/12/24 07:48:15;;;;;;;12.10;3.13;;;10.50;99.90;;;;;;5014045;28;20041;-61
2023/12/24 07:50:42;;;;;;;14.98;3.13;;;10.50;99.90;;;;;;5029836;28;20071;-61
2023/12/24 07:53:07;;;;;;;9.50;3.05;;;10.60;99.90;;;;;;5037140;28;20048;-61
2023/12/24 07:55:33;;;;;;;13.70;3.40;;;10.50;99.90;;;;;;5053528;28;20110;-61
2023/12/24 07:57:59;;;;;;;10.65;3.33;;;10.50;99.90;;;;;;5037896;28;20037;-61
2023/12/24 08:00:24;;;;;;;10.93;2.88;;;10.60;99.90;;;;;;5037391;28;20452;-61
2023/12/24 08:02:51;;;;;;;14.85;3.10;;;10.50;99.90;;;;;;5036271;28;20110;-61
2023/12/24 08:05:17;;;;;;;13.23;2.83;;;10.50;99.90;;;;;;5037577;28;20080;-61
2023/12/24 08:07:42;;;;;;;10.77;2.85;;;10.50;99.90;;;;;;5037582;28;20076;-60
2023/12/24 08:10:08;;;;;;;17.08;3.50;;;10.50;99.90;;;;;;5031467;28;20064;-61
2023/12/24 08:12:34;;;;;;;10.15;3.75;;;10.50;99.90;;;;;;5033639;28;20087;-61
2023/12/24 08:15:00;;;;;;;13.85;3.33;;;10.60;99.90;;;;;;5034292;28;20045;-61
2023/12/24 08:17:25;;;;;;;9.65;2.25;;;10.60;99.90;;;;;;5033128;28;20410;-60
2023/12/24 08:19:54;;;;;;;8.80;3.35;;;10.60;99.90;;;;;;5033818;28;20041;-61
2023/12/24 08:22:20;;;;;;;11.60;2.70;;;10.60;99.90;;;;;;5023515;28;20041;-61
2023/12/24 08:24:46;;;;;;;9.23;3.05;;;10.60;99.90;;;;;;5036323;28;20044;-60
2023/12/24 08:27:12;;;;;;;13.15;3.22;;;10.60;99.90;;;;;;5036357;28;20513;-60
2023/12/24 08:29:37;;;;;;;12.38;3.53;;;10.60;99.90;;;;;;5038441;28;20064;-60
2023/12/24 08:32:03;;;;;;;10.50;2.58;;;10.60;99.90;;;;;;5025160;28;20064;-60
2023/12/24 08:34:29;;;;;;;11.75;2.85;;;10.60;99.90;;;;;;5029606;28;20116;-61
2023/12/24 08:36:55;;;;;;;8.02;2.97;;;10.70;99.90;;;;;;5035631;28;20491;-60
2023/12/24 08:39:21;;;;;;;17.63;2.65;;;10.60;99.90;;;;;;5034807;28;20444;-60
2023/12/24 08:41:46;;;;;;;6.47;2.65;;;10.60;99.90;;;;;;5052274;28;20402;-61
2023/12/24 08:44:12;;;;;;;14.00;2.38;;;10.60;99.90;;;;;;5052336;28;20115;-60
2023/12/24 08:46:39;;;;;;;7.97;2.80;;;10.70;99.90;;;;;;5034542;28;20512;-60
2023/12/24 08:49:05;;;;;;;4.97;1.98;;;10.70;99.90;;;;;;5036544;28;20351;-60
2023/12/24 08:51:31;;;;;;;5.88;2.38;;;10.70;99.90;;;;;;5052642;28;20052;-60
2023/12/24 08:53:56;;;;;;;5.90;2.35;;;10.80;99.90;;;;;;5035971;28;20461;-60
2023/12/24 08:56:23;;;;;;;12.77;4.30;;;10.80;99.90;;;;;;5031951;28;20041;-60
2023/12/24 08:58:48;;;;;;;11.00;4.65;;;10.80;99.90;;;;;;5013653;28;20041;-60
2023/12/24 09:01:14;;;;;;;8.63;2.40;;;10.80;99.90;;;;;;5014201;28;20376;-60
2023/12/24 09:03:39;;;;;;;12.88;3.63;;;10.80;99.90;;;;;;4995352;28;20481;-60
2023/12/24 09:06:05;;;;;;;11.30;2.90;;;10.90;99.90;;;;;;5014298;28;20060;-60
2023/12/24 09:08:31;;;;;;;10.95;2.70;;;10.90;99.90;;;;;;5013386;28;20124;-60
2023/12/24 09:10:57;;;;;;;7.65;2.35;;;10.90;99.90;;;;;;5014652;28;20053;-61
2023/12/24 09:13:22;;;;;;;10.07;2.50;;;10.90;99.90;;;;;;5013840;28;20041;-60
2023/12/24 09:15:48;;;;;;;9.10;2.40;;;11.00;99.90;;;;;;5022453;28;20374;-60
2023/12/24 09:18:13;;;;;;;13.15;2.35;;;11.00;99.90;;;;;;5050340;28;20408;-60
2023/12/24 09:20:39;;;;;;;8.32;2.95;;;11.00;99.90;;;;;;5041669;28;20686;-60
2023/12/24 09:23:05;;;;;;;11.60;2.90;;;11.10;99.90;;;;;;5029880;28;20419;-61
2023/12/24 09:25:31;;;;;;;10.32;2.80;;;11.00;99.90;;;;;;5029132;28;20099;-60
2023/12/24 09:27:57;;;;;;;9.32;2.03;;;11.10;99.90;;;;;;5033292;28;20135;-60
2023/12/24 09:30:24;;;;;;;8.45;2.40;;;11.10;99.90;;;;;;5049904;28;20163;-60
2023/12/24 09:32:49;;;;;;;8.40;1.98;;;11.10;99.90;;;;;;5031329;28;20045;-61
2023/12/24 09:35:15;;;;;;;6.93;2.00;;;11.20;99.90;;;;;;5032871;28;20039;-60
2023/12/24 09:37:42;;;;;;;8.10;2.60;;;11.20;99.90;;;;;;5022327;28;20107;-60
2023/12/24 09:40:08;;;;;;;11.13;4.35;;;11.20;99.90;;;;;;5013793;28;20041;-60
2023/12/24 09:42:35;;;;;;;10.32;4.20;;;11.20;99.90;;;;;;5012616;28;20045;-60
2023/12/24 09:45:01;;;;;;;5.40;1.85;;;11.20;99.90;;;;;;5013234;28;20033;-60
2023/12/24 09:47:28;;;;;;;7.85;2.47;;;11.30;99.90;;;;;;5022539;28;20124;-60
2023/12/24 09:49:54;;;;;;;8.57;2.85;;;11.30;99.90;;;;;;5032332;28;20040;-60
2023/12/24 09:52:21;;;;;;;8.25;1.88;;;11.20;99.90;;;;;;5043864;28;20040;-60
2023/12/24 09:54:47;;;;;;;6.25;2.50;;;11.20;99.90;;;;;;5032929;28;20055;-60
2023/12/24 09:57:12;;;;;;;9.00;1.77;;;11.30;99.90;;;;;;5031883;28;20393;-60
2023/12/24 09:59:38;;;;;;;6.68;2.20;;;11.30;99.90;;;;;;5049583;28;20425;-61
2023/12/24 10:02:04;;;;;;;11.15;6.25;;;11.30;99.90;;;;;;5033557;28;20387;-61
2023/12/24 10:04:30;;;;;;;8.40;3.30;;;11.30;99.90;;;;;;5011052;28;20371;-60
2023/12/24 10:06:57;;;;;;;9.77;3.05;;;11.40;99.90;;;;;;5029931;28;20053;-61
2023/12/24 10:09:24;;;;;;;11.57;2.72;;;11.40;99.90;;;;;;5012254;28;20439;-61
2023/12/24 10:12:07;;;;;;;8.75;2.22;;;11.40;99.90;;;;;;5012971;28;20048;-60
2023/12/24 10:14:32;;;;;;;10.95;2.35;;;11.40;99.90;;;;;;5012599;28;20095;-60
2023/12/24 10:17:03;;;;;;;12.75;2.58;;;11.50;99.90;;;;;;5012522;28;20045;-60
2023/12/24 10:19:30;;;;;;;5.95;2.17;;;11.50;99.90;;;;;;5019423;28;20052;-60
2023/12/24 10:21:59;;;;;;;8.52;1.92;;;11.50;99.90;;;;;;5031263;28;20090;-60
2023/12/24 10:24:27;;;;;;;10.55;2.10;;;11.60;99.90;;;;;;5044379;28;20041;-60
2023/12/24 10:27:07;;;;;;;9.43;2.22;;;11.70;99.90;;;;;;5008073;28;20394;-60
2023/12/24 10:29:38;;;;;;;6.38;1.90;;;11.70;99.90;;;;;;5034562;28;20060;-60
2023/12/24 10:32:04;;;;;;;11.43;2.65;;;11.70;99.90;;;;;;5022849;28;20041;-59
2023/12/24 10:34:30;;;;;;;7.68;1.83;;;11.70;99.90;;;;;;5016089;28;20092;-60
2023/12/24 10:36:58;;;;;;;7.47;1.85;;;11.70;99.90;;;;;;5016685;28;20033;-60
2023/12/24 10:39:24;;;;;;;9.60;2.08;;;11.70;99.90;;;;;;5019836;28;20052;-60
2023/12/24 10:41:56;;;;;;;11.50;3.10;;;11.70;99.90;;;;;;5027900;28;20043;-60
2023/12/24 10:44:23;;;;;;;8.32;1.77;;;11.70;99.90;;;;;;5001799;28;20459;-60
2023/12/24 10:46:50;;;;;;;9.90;2.70;;;11.70;99.90;;;;;;5014689;28;20047;-61
2023/12/24 10:49:16;;;;;;;15.90;2.25;;;11.70;99.90;;;;;;5014296;28;20132;-61
2023/12/24 10:51:42;;;;;;;6.95;1.92;;;11.70;99.90;;;;;;5013689;28;20574;-61
2023/12/24 10:54:07;;;;;;;12.88;2.47;;;11.60;99.90;;;;;;5014730;28;20045;-61
2023/12/24 10:56:50;;;;;;;8.18;1.95;;;11.60;99.90;;;;;;5014898;28;20445;-61
2023/12/24 10:59:58;;;;;;;9.15;2.42;;;11.60;99.90;;;;;;5013675;28;20568;-61
2023/12/24 11:02:24;;;;;;;8.20;2.42;;;11.60;99.90;;;;;;4997420;28;20049;-61
2023/12/24 11:04:49;;;;;;;8.50;2.63;;;11.50;99.90;;;;;;5014708;28;20052;-60
2023/12/24 11:07:33;;;;;;;10.10;2.38;;;11.50;99.90;;;;;;5013635;28;20490;-60
2023/12/24 11:10:05;;;;;;;10.93;2.30;;;11.50;99.90;;;;;;4998705;28;20383;-61
2023/12/24 11:12:32;;;;;;;10.70;2.60;;;11.50;99.90;;;;;;5013568;28;20038;-61
2023/12/24 11:14:58;;;;;;;11.20;2.85;;;11.50;99.90;;;;;;5014650;28;20045;-60
2023/12/24 11:17:33;;;;;;;10.63;2.60;;;11.50;99.90;;;;;;5014426;28;20551;-61
2023/12/24 11:20:25;;;;;;;11.23;2.80;;;11.40;99.90;;;;;;5013671;28;20052;-61
2023/12/24 11:23:06;;;;;;;13.00;4.57;;;11.40;99.90;;;;;;5014443;28;20049;-60
2023/12/24 11:25:42;;;;;;;15.75;4.30;;;11.50;99.90;;;;;;5013602;28;20033;-60
2023/12/24 11:28:10;;;;;;;14.63;3.25;;;11.50;99.90;;;;;;5029859;28;20037;-60
2023/12/24 11:30:51;;;;;;;7.72;2.30;;;11.50;99.90;;;;;;5014674;28;20073;-60
2023/12/24 11:33:29;;;;;;;11.68;2.50;;;11.50;99.90;;;;;;5014202;28;20077;-60
2023/12/24 11:35:56;;;;;;;8.27;2.55;;;11.60;99.90;;;;;;4997478;28;20037;-61
2023/12/24 11:38:34;;;;;;;13.95;5.78;;;11.70;99.90;;;;;;4997642;28;20112;-61
2023/12/24 11:41:10;;;;;;;13.43;2.58;;;11.70;99.90;;;;;;5013761;28;20056;-61
2023/12/24 11:43:37;;;;;;;8.43;2.53;;;11.70;99.90;;;;;;5014175;28;20490;-61
2023/12/24 11:46:04;;;;;;;10.43;3.28;;;11.70;99.90;;;;;;5014578;28;20037;-61
2023/12/24 11:48:31;;;;;;;8.52;2.63;;;11.70;99.90;;;;;;5013087;28;20073;-61
2023/12/24 11:51:06;;;;;;;10.40;2.15;;;11.70;99.90;;;;;;5014175;28;20041;-61
2023/12/24 11:53:33;;;;;;;9.43;2.63;;;11.80;99.90;;;;;;5013770;28;20163;-60
2023/12/24 11:56:16;;;;;;;12.98;3.28;;;11.80;99.90;;;;;;5013716;28;20045;-60
2023/12/24 11:59:03;;;;;;;9.27;2.20;;;11.90;99.90;;;;;;5014032;28;20046;-61
2023/12/24 12:01:31;;;;;;;10.98;2.83;;;11.80;99.90;;;;;;5013919;28;20128;-61
2023/12/24 12:04:00;;;;;;;9.90;2.47;;;11.80;99.90;;;;;;5013171;28;20071;-60
2023/12/24 12:06:36;;;;;;;11.68;2.47;;;11.80;99.90;;;;;;5014007;28;20038;-60
2023/12/24 12:09:06;;;;;;;13.63;2.70;;;11.80;99.90;;;;;;5013392;28;20052;-60
2023/12/24 12:11:32;;;;;;;9.75;2.90;;;11.80;99.90;;;;;;5013589;28;20045;-60
2023/12/24 12:14:04;;;;;;;13.43;3.05;;;11.80;99.90;;;;;;5014199;28;20478;-60
2023/12/24 12:16:30;;;;;;;11.70;2.80;;;11.80;99.90;;;;;;5013021;28;20081;-61
2023/12/24 12:18:55;;;;;;;8.25;2.83;;;11.80;99.90;;;;;;5031726;28;20498;-61
2023/12/24 12:21:21;;;;;;;13.68;3.60;;;11.80;99.90;;;;;;5013659;28;20104;-61
2023/12/24 12:23:47;;;;;;;8.15;2.47;;;11.90;99.90;;;;;;5013032;28;20045;-61
2023/12/24 12:26:12;;;;;;;10.15;3.22;;;11.80;99.90;;;;;;5014098;28;20096;-61
2023/12/24 12:28:38;;;;;;;11.77;2.78;;;11.90;99.90;;;;;;5013840;28;20494;-61
2023/12/24 12:31:04;;;;;;;11.50;3.80;;;11.80;99.90;;;;;;5013445;28;20436;-61
2023/12/24 12:33:30;;;;;;;8.15;2.75;;;11.80;99.90;;;;;;5014159;28;20053;-60
2023/12/24 12:35:55;;;;;;;7.78;2.15;;;11.80;99.90;;;;;;5020422;28;20045;-61
2023/12/24 12:38:22;;;;;;;8.82;2.15;;;11.90;99.90;;;;;;5018013;28;20045;-60
2023/12/24 12:40:49;;;;;;;7.72;3.28;;;11.90;99.90;;;;;;5018135;28;20049;-61
2023/12/24 12:43:16;;;;;;;8.13;1.80;;;11.80;99.90;;;;;;5034820;28;20041;-61
2023/12/24 12:45:42;;;;;;;7.55;2.35;;;11.90;99.90;;;;;;5036011;28;20367;-61